sensor_id;sensor_type;location;lat;lon;timestamp;pressure;altitude;pressure_sealevel;temperature;humidity
75247;BME280;63844;50.042;19.224;2023-03-03T00:00:02;99327.21;;;-2.64;72.72
75247;BME280;63844;50.042;19.224;2023-03-03T00:02:29;99330.69;;;-2.67;72.95
75247;BME280;63844;50.042;19.224;2023-03-03T00:04:56;99330.88;;;-2.68;76.06
75247;BME280;63844;50.042;19.224;2023-03-03T00:07:22;99328.77;;;-2.65;76.55
75247;BME280;63844;50.042;19.224;2023-03-03T00:09:49;99326.20;;;-2.68;74.48
75247;BME280;63844;50.042;19.224;2023-03-03T00:12:24;99325.86;;;-2.69;72.83
75247;BME280;63844;50.042;19.224;2023-03-03T00:14:51;99324.66;;;-2.72;73.41
75247;BME280;63844;50.042;19.224;2023-03-03T00:17:24;99321.91;;;-2.75;73.40
75247;BME280;63844;50.042;19.224;2023-03-03T00:19:51;99327.13;;;-2.77;73.05
75247;BME280;63844;50.042;19.224;2023-03-03T00:24:52;99325.27;;;-2.83;74.93
75247;BME280;63844;50.042;19.224;2023-03-03T00:27:30;99320.75;;;-2.81;73.35
75247;BME280;63844;50.042;19.224;2023-03-03T00:30:01;99324.75;;;-2.83;73.60
75247;BME280;63844;50.042;19.224;2023-03-03T00:32:43;99324.58;;;-2.84;74.28
75247;BME280;63844;50.042;19.224;2023-03-03T00:35:30;99326.80;;;-2.81;78.84
75247;BME280;63844;50.042;19.224;2023-03-03T00:38:18;99325.96;;;-2.84;73.93
75247;BME280;63844;50.042;19.224;2023-03-03T00:40:46;99323.58;;;-2.89;73.68
75247;BME280;63844;50.042;19.224;2023-03-03T00:43:24;99319.79;;;-2.92;73.82
75247;BME280;63844;50.042;19.224;2023-03-03T00:45:54;99320.98;;;-2.92;74.06
75247;BME280;63844;50.042;19.224;2023-03-03T00:50:52;99314.95;;;-2.96;76.74
75247;BME280;63844;50.042;19.224;2023-03-03T00:53:20;99307.88;;;-2.98;73.68
75247;BME280;63844;50.042;19.224;2023-03-03T00:55:49;99302.16;;;-3.01;73.67
75247;BME280;63844;50.042;19.224;2023-03-03T00:58:16;99298.54;;;-3.00;73.22
75247;BME280;63844;50.042;19.224;2023-03-03T01:00:44;99298.55;;;-3.04;73.25
75247;BME280;63844;50.042;19.224;2023-03-03T01:03:16;99295.10;;;-3.06;73.08
75247;BME280;63844;50.042;19.224;2023-03-03T01:05:43;99294.77;;;-3.08;75.40
75247;BME280;63844;50.042;19.224;2023-03-03T01:08:10;99294.43;;;-3.09;75.26
75247;BME280;63844;50.042;19.224;2023-03-03T01:10:41;99293.40;;;-3.08;77.93
75247;BME280;63844;50.042;19.224;2023-03-03T01:13:08;99294.61;;;-3.09;74.15
75247;BME280;63844;50.042;19.224;2023-03-03T01:15:37;99291.17;;;-3.13;73.62
75247;BME280;63844;50.042;19.224;2023-03-03T01:18:03;99285.30;;;-3.13;76.71
75247;BME280;63844;50.042;19.224;2023-03-03T01:20:30;99287.73;;;-3.18;73.84
75247;BME280;63844;50.042;19.224;2023-03-03T01:22:57;99285.34;;;-3.22;74.37
75247;BME280;63844;50.042;19.224;2023-03-03T01:25:23;99286.73;;;-3.23;74.25
75247;BME280;63844;50.042;19.224;2023-03-03T01:27:50;99285.86;;;-3.23;76.06
75247;BME280;63844;50.042;19.224;2023-03-03T01:30:16;99286.39;;;-3.25;73.96
75247;BME280;63844;50.042;19.224;2023-03-03T01:32:43;99290.41;;;-3.31;75.01
75247;BME280;63844;50.042;19.224;2023-03-03T01:35:10;99286.42;;;-3.31;77.00
75247;BME280;63844;50.042;19.224;2023-03-03T01:37:36;99287.64;;;-3.32;77.28
75247;BME280;63844;50.042;19.224;2023-03-03T01:40:05;99292.16;;;-3.34;75.80
75247;BME280;63844;50.042;19.224;2023-03-03T01:42:32;99289.08;;;-3.40;75.60
75247;BME280;63844;50.042;19.224;2023-03-03T01:45:26;99289.42;;;-3.41;75.55
75247;BME280;63844;50.042;19.224;2023-03-03T01:47:59;99289.63;;;-3.45;79.18
75247;BME280;63844;50.042;19.224;2023-03-03T01:50:31;99287.20;;;-3.47;75.77
75247;BME280;63844;50.042;19.224;2023-03-03T01:53:04;99283.91;;;-3.49;77.57
75247;BME280;63844;50.042;19.224;2023-03-03T01:55:36;99282.89;;;-3.48;76.04
75247;BME280;63844;50.042;19.224;2023-03-03T01:58:11;99285.31;;;-3.48;74.91
75247;BME280;63844;50.042;19.224;2023-03-03T02:00:41;99284.63;;;-3.51;75.31
75247;BME280;63844;50.042;19.224;2023-03-03T02:03:09;99279.79;;;-3.52;75.23
75247;BME280;63844;50.042;19.224;2023-03-03T02:05:36;99274.60;;;-3.51;75.09
75247;BME280;63844;50.042;19.224;2023-03-03T02:08:06;99279.10;;;-3.51;74.64
75247;BME280;63844;50.042;19.224;2023-03-03T02:10:34;99280.48;;;-3.51;75.83
75247;BME280;63844;50.042;19.224;2023-03-03T02:13:01;99274.59;;;-3.54;77.18
75247;BME280;63844;50.042;19.224;2023-03-03T02:15:30;99274.95;;;-3.53;78.78
75247;BME280;63844;50.042;19.224;2023-03-03T02:17:59;99275.81;;;-3.53;75.87
75247;BME280;63844;50.042;19.224;2023-03-03T02:23:01;99276.16;;;-3.54;77.55
75247;BME280;63844;50.042;19.224;2023-03-03T02:28:17;99280.69;;;-3.59;79.10
75247;BME280;63844;50.042;19.224;2023-03-03T02:30:43;99280.16;;;-3.58;79.26
75247;BME280;63844;50.042;19.224;2023-03-03T02:33:10;99279.30;;;-3.60;77.00
75247;BME280;63844;50.042;19.224;2023-03-03T02:35:37;99280.54;;;-3.63;75.63
75247;BME280;63844;50.042;19.224;2023-03-03T02:38:16;99276.73;;;-3.64;75.88
75247;BME280;63844;50.042;19.224;2023-03-03T02:40:48;99273.27;;;-3.64;75.74
75247;BME280;63844;50.042;19.224;2023-03-03T02:43:19;99272.77;;;-3.66;76.06
75247;BME280;63844;50.042;19.224;2023-03-03T02:45:48;99273.29;;;-3.68;75.44
75247;BME280;63844;50.042;19.224;2023-03-03T02:48:15;99269.83;;;-3.70;77.54
75247;BME280;63844;50.042;19.224;2023-03-03T02:50:41;99269.66;;;-3.69;77.04
75247;BME280;63844;50.042;19.224;2023-03-03T02:53:08;99267.42;;;-3.72;76.99
75247;BME280;63844;50.042;19.224;2023-03-03T02:55:35;99268.48;;;-3.74;75.36
75247;BME280;63844;50.042;19.224;2023-03-03T02:58:01;99266.59;;;-3.78;75.16
75247;BME280;63844;50.042;19.224;2023-03-03T03:00:28;99267.11;;;-3.78;79.68
75247;BME280;63844;50.042;19.224;2023-03-03T03:02:54;99265.02;;;-3.79;77.59
75247;BME280;63844;50.042;19.224;2023-03-03T03:05:21;99266.43;;;-3.81;76.01
75247;BME280;63844;50.042;19.224;2023-03-03T03:07:47;99272.48;;;-3.83;76.02
75247;BME280;63844;50.042;19.224;2023-03-03T03:10:13;99275.95;;;-3.85;77.78
75247;BME280;63844;50.042;19.224;2023-03-03T03:12:40;99274.90;;;-3.85;77.48
75247;BME280;63844;50.042;19.224;2023-03-03T03:15:07;99278.55;;;-3.87;75.81
75247;BME280;63844;50.042;19.224;2023-03-03T03:17:38;99280.27;;;-3.91;76.21
75247;BME280;63844;50.042;19.224;2023-03-03T03:20:05;99278.73;;;-3.91;77.82
75247;BME280;63844;50.042;19.224;2023-03-03T03:22:33;99280.13;;;-3.92;76.82
75247;BME280;63844;50.042;19.224;2023-03-03T03:25:00;99280.80;;;-3.91;79.24
75247;BME280;63844;50.042;19.224;2023-03-03T03:27:26;99280.30;;;-3.94;76.71
75247;BME280;63844;50.042;19.224;2023-03-03T03:29:52;99273.23;;;-3.97;76.52
75247;BME280;63844;50.042;19.224;2023-03-03T03:32:19;99270.11;;;-3.99;75.68
75247;BME280;63844;50.042;19.224;2023-03-03T03:34:46;99270.28;;;-3.99;75.98
75247;BME280;63844;50.042;19.224;2023-03-03T03:37:12;99268.56;;;-4.00;75.74
75247;BME280;63844;50.042;19.224;2023-03-03T03:39:39;99267.17;;;-4.01;76.54
75247;BME280;63844;50.042;19.224;2023-03-03T03:42:06;99266.48;;;-4.03;76.11
75247;BME280;63844;50.042;19.224;2023-03-03T03:44:32;99266.15;;;-4.03;78.43
75247;BME280;63844;50.042;19.224;2023-03-03T03:46:59;99263.03;;;-4.02;76.54
75247;BME280;63844;50.042;19.224;2023-03-03T03:49:25;99263.05;;;-4.05;75.76
75247;BME280;63844;50.042;19.224;2023-03-03T03:51:52;99265.80;;;-4.06;76.33
75247;BME280;63844;50.042;19.224;2023-03-03T03:54:18;99273.26;;;-4.07;76.47
75247;BME280;63844;50.042;19.224;2023-03-03T03:56:45;99277.91;;;-4.08;77.06
75247;BME280;63844;50.042;19.224;2023-03-03T03:59:11;99280.16;;;-4.09;76.67
75247;BME280;63844;50.042;19.224;2023-03-03T04:01:38;99283.10;;;-4.11;77.14
75247;BME280;63844;50.042;19.224;2023-03-03T04:04:04;99284.33;;;-4.13;77.03
75247;BME280;63844;50.042;19.224;2023-03-03T04:06:31;99273.79;;;-4.13;81.47
75247;BME280;63844;50.042;19.224;2023-03-03T04:08:57;99270.15;;;-4.17;84.11
75247;BME280;63844;50.042;19.224;2023-03-03T04:11:24;99270.69;;;-4.18;79.87
75247;BME280;63844;50.042;19.224;2023-03-03T04:13:50;99267.58;;;-4.18;78.93
75247;BME280;63844;50.042;19.224;2023-03-03T04:16:17;99268.80;;;-4.20;77.85
75247;BME280;63844;50.042;19.224;2023-03-03T04:18:43;99263.25;;;-4.18;80.28
75247;BME280;63844;50.042;19.224;2023-03-03T04:21:12;99261.70;;;-4.20;77.04
75247;BME280;63844;50.042;19.224;2023-03-03T04:23:39;99259.45;;;-4.24;76.46
75247;BME280;63844;50.042;19.224;2023-03-03T04:26:07;99264.66;;;-4.26;78.29
75247;BME280;63844;50.042;19.224;2023-03-03T04:28:34;99271.56;;;-4.27;77.09
75247;BME280;63844;50.042;19.224;2023-03-03T04:31:00;99275.52;;;-4.28;77.15
75247;BME280;63844;50.042;19.224;2023-03-03T04:33:27;99274.86;;;-4.29;76.99
75247;BME280;63844;50.042;19.224;2023-03-03T04:35:53;99276.73;;;-4.27;77.25
75247;BME280;63844;50.042;19.224;2023-03-03T04:38:20;99285.38;;;-4.28;76.92
75247;BME280;63844;50.042;19.224;2023-03-03T04:40:47;99293.00;;;-4.34;78.60
75247;BME280;63844;50.042;19.224;2023-03-03T04:43:13;99289.37;;;-4.33;80.59
75247;BME280;63844;50.042;19.224;2023-03-03T04:45:40;99287.64;;;-4.32;77.50
75247;BME280;63844;50.042;19.224;2023-03-03T04:48:06;99285.58;;;-4.36;76.66
75247;BME280;63844;50.042;19.224;2023-03-03T04:50:33;99284.02;;;-4.35;78.81
75247;BME280;63844;50.042;19.224;2023-03-03T04:53:00;99281.94;;;-4.33;81.56
75247;BME280;63844;50.042;19.224;2023-03-03T04:55:26;99281.60;;;-4.35;77.91
75247;BME280;63844;50.042;19.224;2023-03-03T04:57:53;99281.94;;;-4.37;77.94
75247;BME280;63844;50.042;19.224;2023-03-03T05:00:19;99280.90;;;-4.34;79.69
75247;BME280;63844;50.042;19.224;2023-03-03T05:02:47;99281.59;;;-4.33;80.70
75247;BME280;63844;50.042;19.224;2023-03-03T05:05:14;99279.00;;;-4.28;86.00
75247;BME280;63844;50.042;19.224;2023-03-03T05:07:40;99282.45;;;-4.26;83.49
75247;BME280;63844;50.042;19.224;2023-03-03T05:10:08;99287.45;;;-4.22;80.10
75247;BME280;63844;50.042;19.224;2023-03-03T05:12:35;99289.16;;;-4.15;85.35
75247;BME280;63844;50.042;19.224;2023-03-03T05:15:02;99288.64;;;-4.14;84.16
75247;BME280;63844;50.042;19.224;2023-03-03T05:17:28;99285.19;;;-4.13;79.12
75247;BME280;63844;50.042;19.224;2023-03-03T05:19:55;99285.54;;;-4.10;79.16
75247;BME280;63844;50.042;19.224;2023-03-03T05:22:23;99285.00;;;-4.07;85.86
75247;BME280;63844;50.042;19.224;2023-03-03T05:24:50;99282.57;;;-4.05;88.80
75247;BME280;63844;50.042;19.224;2023-03-03T05:27:17;99283.09;;;-4.04;89.70
75247;BME280;63844;50.042;19.224;2023-03-03T05:29:44;99289.14;;;-4.03;89.46
75247;BME280;63844;50.042;19.224;2023-03-03T05:32:11;99284.28;;;-4.00;90.40
75247;BME280;63844;50.042;19.224;2023-03-03T05:34:37;99279.97;;;-3.99;90.82
75247;BME280;63844;50.042;19.224;2023-03-03T05:37:04;99279.61;;;-3.98;89.11
75247;BME280;63844;50.042;19.224;2023-03-03T05:39:32;99285.84;;;-3.94;88.18
75247;BME280;63844;50.042;19.224;2023-03-03T05:41:59;99290.67;;;-3.93;90.00
75247;BME280;63844;50.042;19.224;2023-03-03T05:44:26;99300.00;;;-3.93;85.38
75247;BME280;63844;50.042;19.224;2023-03-03T05:46:53;99303.48;;;-3.99;89.67
75247;BME280;63844;50.042;19.224;2023-03-03T05:49:22;99309.72;;;-4.06;90.94
75247;BME280;63844;50.042;19.224;2023-03-03T05:51:48;99314.03;;;-4.04;90.84
75247;BME280;63844;50.042;19.224;2023-03-03T05:54:15;99309.36;;;-4.02;87.26
75247;BME280;63844;50.042;19.224;2023-03-03T05:56:41;99313.50;;;-3.98;85.43
75247;BME280;63844;50.042;19.224;2023-03-03T05:59:08;99318.33;;;-3.95;85.12
75247;BME280;63844;50.042;19.224;2023-03-03T06:01:34;99318.84;;;-3.93;84.20
75247;BME280;63844;50.042;19.224;2023-03-03T06:04:01;99325.92;;;-3.88;86.72
75247;BME280;63844;50.042;19.224;2023-03-03T06:06:28;99335.27;;;-3.88;85.88
75247;BME280;63844;50.042;19.224;2023-03-03T06:08:54;99343.05;;;-3.91;88.66
75247;BME280;63844;50.042;19.224;2023-03-03T06:11:21;99346.15;;;-3.89;88.30
75247;BME280;63844;50.042;19.224;2023-03-03T06:13:47;99348.56;;;-3.84;89.03
75247;BME280;63844;50.042;19.224;2023-03-03T06:16:14;99347.52;;;-3.79;86.22
75247;BME280;63844;50.042;19.224;2023-03-03T06:18:40;99354.08;;;-3.77;87.21
75247;BME280;63844;50.042;19.224;2023-03-03T06:21:07;99354.59;;;-3.74;85.16
75247;BME280;63844;50.042;19.224;2023-03-03T06:23:33;99357.01;;;-3.71;88.77
75247;BME280;63844;50.042;19.224;2023-03-03T06:26:00;99366.70;;;-3.71;90.21
75247;BME280;63844;50.042;19.224;2023-03-03T06:28:27;99369.27;;;-3.68;90.89
75247;BME280;63844;50.042;19.224;2023-03-03T06:30:55;99378.61;;;-3.65;89.79
75247;BME280;63844;50.042;19.224;2023-03-03T06:33:22;99383.61;;;-3.63;88.06
75247;BME280;63844;50.042;19.224;2023-03-03T06:35:53;99380.49;;;-3.59;89.01
75247;BME280;63844;50.042;19.224;2023-03-03T06:38:20;99378.73;;;-3.48;86.47
75247;BME280;63844;50.042;19.224;2023-03-03T06:40:47;99380.95;;;-3.41;86.26
75247;BME280;63844;50.042;19.224;2023-03-03T06:43:14;99380.60;;;-3.36;89.26
75247;BME280;63844;50.042;19.224;2023-03-03T06:45:40;99378.66;;;-3.29;90.29
75247;BME280;63844;50.042;19.224;2023-03-03T06:48:08;99368.38;;;-3.14;89.69
75247;BME280;63844;50.042;19.224;2023-03-03T06:50:35;99373.52;;;-3.00;88.42
75247;BME280;63844;50.042;19.224;2023-03-03T06:53:13;99372.43;;;-2.92;89.01
75247;BME280;63844;50.042;19.224;2023-03-03T06:55:41;99378.23;;;-2.81;88.90
75247;BME280;63844;50.042;19.224;2023-03-03T06:58:15;99374.04;;;-2.72;88.93
75247;BME280;63844;50.042;19.224;2023-03-03T07:00:44;99372.77;;;-2.63;89.54
75247;BME280;63844;50.042;19.224;2023-03-03T07:03:14;99361.11;;;-2.57;89.50
75247;BME280;63844;50.042;19.224;2023-03-03T07:05:42;99351.36;;;-2.48;89.31
75247;BME280;63844;50.042;19.224;2023-03-03T07:08:15;99345.38;;;-2.38;86.28
75247;BME280;63844;50.042;19.224;2023-03-03T07:10:44;99341.16;;;-2.31;84.83
75247;BME280;63844;50.042;19.224;2023-03-03T07:13:20;99343.02;;;-2.28;84.96
75247;BME280;63844;50.042;19.224;2023-03-03T07:15:52;99359.19;;;-2.30;86.96
75247;BME280;63844;50.042;19.224;2023-03-03T07:20:50;99365.20;;;-2.24;88.26
75247;BME280;63844;50.042;19.224;2023-03-03T07:23:23;99371.34;;;-2.13;87.12
75247;BME280;63844;50.042;19.224;2023-03-03T07:25:51;99366.59;;;-2.05;87.27
75247;BME280;63844;50.042;19.224;2023-03-03T07:28:27;99368.42;;;-1.97;88.33
75247;BME280;63844;50.042;19.224;2023-03-03T07:30:56;99362.63;;;-1.89;88.01
75247;BME280;63844;50.042;19.224;2023-03-03T07:33:42;99345.36;;;-1.81;88.28
75247;BME280;63844;50.042;19.224;2023-03-03T07:36:28;99342.27;;;-1.69;88.22
75247;BME280;63844;50.042;19.224;2023-03-03T07:39:01;99357.23;;;-1.55;87.80
75247;BME280;63844;50.042;19.224;2023-03-03T07:41:33;99364.23;;;-1.45;87.39
75247;BME280;63844;50.042;19.224;2023-03-03T07:44:11;99356.92;;;-1.43;87.49
75247;BME280;63844;50.042;19.224;2023-03-03T07:46:47;99346.86;;;-1.43;87.54
75247;BME280;63844;50.042;19.224;2023-03-03T07:49:29;99348.86;;;-1.37;87.04
75247;BME280;63844;50.042;19.224;2023-03-03T07:51:58;99358.00;;;-1.32;87.11
75247;BME280;63844;50.042;19.224;2023-03-03T07:54:35;99359.92;;;-1.32;87.46
75247;BME280;63844;50.042;19.224;2023-03-03T07:59:46;99361.15;;;-1.33;88.11
75247;BME280;63844;50.042;19.224;2023-03-03T08:05:26;99348.23;;;-1.28;88.18
75247;BME280;63844;50.042;19.224;2023-03-03T08:08:01;99344.45;;;-1.30;88.37
75247;BME280;63844;50.042;19.224;2023-03-03T08:10:37;99345.98;;;-1.28;88.64
75247;BME280;63844;50.042;19.224;2023-03-03T08:13:17;99344.04;;;-1.27;89.00
75247;BME280;63844;50.042;19.224;2023-03-03T08:15:45;99344.91;;;-1.26;88.33
75247;BME280;63844;50.042;19.224;2023-03-03T08:18:23;99354.60;;;-1.23;88.18
75247;BME280;63844;50.042;19.224;2023-03-03T08:20:54;99361.80;;;-1.16;87.97
75247;BME280;63844;50.042;19.224;2023-03-03T08:23:21;99373.27;;;-1.17;88.18
75247;BME280;63844;50.042;19.224;2023-03-03T08:25:50;99381.58;;;-1.14;88.88
75247;BME280;63844;50.042;19.224;2023-03-03T08:28:17;99379.42;;;-1.09;88.97
75247;BME280;63844;50.042;19.224;2023-03-03T08:30:44;99370.70;;;-1.05;88.67
75247;BME280;63844;50.042;19.224;2023-03-03T08:33:12;99358.67;;;-1.02;87.64
75247;BME280;63844;50.042;19.224;2023-03-03T08:35:40;99355.65;;;-1.10;87.76
75247;BME280;63844;50.042;19.224;2023-03-03T08:38:07;99365.01;;;-1.08;87.31
75247;BME280;63844;50.042;19.224;2023-03-03T08:40:34;99365.16;;;-1.07;87.26
75247;BME280;63844;50.042;19.224;2023-03-03T08:43:01;99371.77;;;-1.08;87.21
75247;BME280;63844;50.042;19.224;2023-03-03T08:45:28;99378.72;;;-1.07;87.50
75247;BME280;63844;50.042;19.224;2023-03-03T08:47:55;99385.48;;;-1.07;86.87
75247;BME280;63844;50.042;19.224;2023-03-03T08:50:22;99392.08;;;-1.07;86.82
75247;BME280;63844;50.042;19.224;2023-03-03T08:52:49;99389.49;;;-1.09;87.09
75247;BME280;63844;50.042;19.224;2023-03-03T08:55:16;99387.55;;;-1.06;86.75
75247;BME280;63844;50.042;19.224;2023-03-03T08:57:43;99390.16;;;-1.06;86.68
75247;BME280;63844;50.042;19.224;2023-03-03T09:00:12;99393.28;;;-1.06;86.54
75247;BME280;63844;50.042;19.224;2023-03-03T09:02:39;99399.41;;;-1.10;86.57
75247;BME280;63844;50.042;19.224;2023-03-03T09:05:06;99402.55;;;-1.11;86.59
75247;BME280;63844;50.042;19.224;2023-03-03T09:07:33;99407.60;;;-1.13;86.99
75247;BME280;63844;50.042;19.224;2023-03-03T09:10:00;99408.39;;;-1.20;86.58
75247;BME280;63844;50.042;19.224;2023-03-03T09:12:31;99402.02;;;-1.24;86.13
75247;BME280;63844;50.042;19.224;2023-03-03T09:14:59;99400.30;;;-1.26;86.10
75247;BME280;63844;50.042;19.224;2023-03-03T09:17:33;99400.45;;;-1.25;85.76
75247;BME280;63844;50.042;19.224;2023-03-03T09:26:14;99402.05;;;-1.28;85.36
75247;BME280;63844;50.042;19.224;2023-03-03T09:28:43;99399.80;;;-1.29;85.00
75247;BME280;63844;50.042;19.224;2023-03-03T09:31:41;99394.08;;;-1.28;84.94
75247;BME280;63844;50.042;19.224;2023-03-03T09:34:24;99396.91;;;-1.34;85.06
75247;BME280;63844;50.042;19.224;2023-03-03T09:36:52;99399.74;;;-1.38;85.39
75247;BME280;63844;50.042;19.224;2023-03-03T09:39:25;99403.20;;;-1.37;84.92
75247;BME280;63844;50.042;19.224;2023-03-03T09:42:11;99406.34;;;-1.39;84.97
75247;BME280;63844;50.042;19.224;2023-03-03T09:50:42;99418.14;;;-1.38;84.76
75247;BME280;63844;50.042;19.224;2023-03-03T09:56:16;99415.07;;;-1.26;84.60
75247;BME280;63844;50.042;19.224;2023-03-03T10:06:48;99402.54;;;-1.10;83.92
75247;BME280;63844;50.042;19.224;2023-03-03T10:09:40;99401.25;;;-1.04;83.65
75247;BME280;63844;50.042;19.224;2023-03-03T10:12:26;99403.60;;;-0.98;83.16
75247;BME280;63844;50.042;19.224;2023-03-03T10:17:57;99425.02;;;-1.02;83.65
75247;BME280;63844;50.042;19.224;2023-03-03T10:21:01;99427.63;;;-1.01;83.52
75247;BME280;63844;50.042;19.224;2023-03-03T10:23:51;99429.38;;;-1.03;83.67
75247;BME280;63844;50.042;19.224;2023-03-03T10:38:11;99412.02;;;-1.03;84.25
75247;BME280;63844;50.042;19.224;2023-03-03T10:40:49;99421.83;;;-0.97;84.72
75247;BME280;63844;50.042;19.224;2023-03-03T10:46:35;99423.77;;;-0.98;84.91
75247;BME280;63844;50.042;19.224;2023-03-03T10:52:18;99429.91;;;-1.04;85.72
75247;BME280;63844;50.042;19.224;2023-03-03T10:57:50;99436.96;;;-0.98;85.83
75247;BME280;63844;50.042;19.224;2023-03-03T11:00:26;99441.83;;;-0.99;85.80
75247;BME280;63844;50.042;19.224;2023-03-03T11:03:29;99441.45;;;-1.09;86.49
75247;BME280;63844;50.042;19.224;2023-03-03T11:06:04;99443.66;;;-1.21;87.31
75247;BME280;63844;50.042;19.224;2023-03-03T11:08:39;99440.48;;;-1.17;87.42
75247;BME280;63844;50.042;19.224;2023-03-03T11:16:58;99434.75;;;-1.02;86.93
75247;BME280;63844;50.042;19.224;2023-03-03T11:19:43;99436.23;;;-0.95;86.65
75247;BME280;63844;50.042;19.224;2023-03-03T11:22:24;99435.58;;;-0.97;86.72
75247;BME280;63844;50.042;19.224;2023-03-03T11:33:19;99429.58;;;-0.91;86.83
75247;BME280;63844;50.042;19.224;2023-03-03T11:36:06;99427.48;;;-0.89;86.64
75247;BME280;63844;50.042;19.224;2023-03-03T11:43:51;99426.81;;;-0.93;87.33
75247;BME280;63844;50.042;19.224;2023-03-03T11:46:29;99423.97;;;-0.87;86.97
75247;BME280;63844;50.042;19.224;2023-03-03T11:55:16;99419.90;;;-0.81;86.74
75247;BME280;63844;50.042;19.224;2023-03-03T11:57:45;99422.52;;;-0.83;87.04
75247;BME280;63844;50.042;19.224;2023-03-03T12:00:59;99419.29;;;-0.87;87.20
75247;BME280;63844;50.042;19.224;2023-03-03T12:08:21;99425.09;;;-0.79;86.96
75247;BME280;63844;50.042;19.224;2023-03-03T12:13:49;99412.50;;;-0.87;86.57
75247;BME280;63844;50.042;19.224;2023-03-03T12:16:56;99414.11;;;-0.78;86.66
75247;BME280;63844;50.042;19.224;2023-03-03T12:25:18;99411.88;;;-0.79;86.23
75247;BME280;63844;50.042;19.224;2023-03-03T12:30:57;99413.25;;;-0.78;85.93
75247;BME280;63844;50.042;19.224;2023-03-03T12:33:38;99406.09;;;-0.76;85.90
75247;BME280;63844;50.042;19.224;2023-03-03T12:36:22;99407.05;;;-0.69;85.77
75247;BME280;63844;50.042;19.224;2023-03-03T12:47:40;99394.91;;;-0.71;85.38
75247;BME280;63844;50.042;19.224;2023-03-03T12:53:00;99388.51;;;-0.61;85.90
75247;BME280;63844;50.042;19.224;2023-03-03T12:55:50;99390.74;;;-0.59;85.30
75247;BME280;63844;50.042;19.224;2023-03-03T13:01:16;99381.54;;;-0.60;85.22
75247;BME280;63844;50.042;19.224;2023-03-03T13:14:53;99376.08;;;-0.42;84.45
75247;BME280;63844;50.042;19.224;2023-03-03T13:17:26;99376.55;;;-0.40;84.63
75247;BME280;63844;50.042;19.224;2023-03-03T13:19:59;99376.48;;;-0.37;84.05
75247;BME280;63844;50.042;19.224;2023-03-03T13:22:35;99376.48;;;-0.36;83.52
75247;BME280;63844;50.042;19.224;2023-03-03T13:25:28;99378.02;;;-0.33;83.62
75247;BME280;63844;50.042;19.224;2023-03-03T13:28:05;99375.23;;;-0.35;83.67
75247;BME280;63844;50.042;19.224;2023-03-03T13:30:38;99375.38;;;-0.32;83.74
75247;BME280;63844;50.042;19.224;2023-03-03T13:33:19;99372.67;;;-0.38;83.81
75247;BME280;63844;50.042;19.224;2023-03-03T13:35:57;99371.63;;;-0.37;84.00
75247;BME280;63844;50.042;19.224;2023-03-03T13:38:30;99375.25;;;-0.35;84.07
75247;BME280;63844;50.042;19.224;2023-03-03T13:41:22;99375.05;;;-0.34;83.99
75247;BME280;63844;50.042;19.224;2023-03-03T13:44:04;99374.36;;;-0.34;84.21
75247;BME280;63844;50.042;19.224;2023-03-03T13:49:34;99368.23;;;-0.32;83.98
75247;BME280;63844;50.042;19.224;2023-03-03T13:52:20;99364.21;;;-0.30;83.88
75247;BME280;63844;50.042;19.224;2023-03-03T14:00:04;99362.92;;;-0.26;83.23
75247;BME280;63844;50.042;19.224;2023-03-03T14:05:56;99361.18;;;-0.26;82.35
75247;BME280;63844;50.042;19.224;2023-03-03T14:08:58;99360.30;;;-0.25;82.11
75247;BME280;63844;50.042;19.224;2023-03-03T14:11:41;99365.86;;;-0.24;81.88
75247;BME280;63844;50.042;19.224;2023-03-03T14:14:21;99371.08;;;-0.25;82.10
75247;BME280;63844;50.042;19.224;2023-03-03T14:16:55;99369.41;;;-0.29;82.20
75247;BME280;63844;50.042;19.224;2023-03-03T14:19:36;99363.36;;;-0.31;82.42
75247;BME280;63844;50.042;19.224;2023-03-03T14:25:01;99358.79;;;-0.28;82.51
75247;BME280;63844;50.042;19.224;2023-03-03T14:35:49;99363.13;;;-0.28;82.48
75247;BME280;63844;50.042;19.224;2023-03-03T14:38:22;99365.90;;;-0.27;82.01
75247;BME280;63844;50.042;19.224;2023-03-03T14:43:37;99352.38;;;-0.29;81.55
75247;BME280;63844;50.042;19.224;2023-03-03T14:48:59;99355.64;;;-0.27;81.32
75247;BME280;63844;50.042;19.224;2023-03-03T14:54:33;99353.34;;;-0.24;81.22
75247;BME280;63844;50.042;19.224;2023-03-03T14:57:10;99353.32;;;-0.23;81.29
75247;BME280;63844;50.042;19.224;2023-03-03T14:59:37;99353.72;;;-0.27;81.01
75247;BME280;63844;50.042;19.224;2023-03-03T15:04:43;99351.48;;;-0.28;81.28
75247;BME280;63844;50.042;19.224;2023-03-03T15:07:33;99354.11;;;-0.29;81.49
75247;BME280;63844;50.042;19.224;2023-03-03T15:10:01;99349.88;;;-0.25;81.32
75247;BME280;63844;50.042;19.224;2023-03-03T15:12:39;99351.25;;;-0.24;81.41
75247;BME280;63844;50.042;19.224;2023-03-03T15:15:18;99349.13;;;-0.22;81.40
75247;BME280;63844;50.042;19.224;2023-03-03T15:20:58;99355.60;;;-0.25;81.48
75247;BME280;63844;50.042;19.224;2023-03-03T15:27:43;99357.61;;;-0.30;81.84
75247;BME280;63844;50.042;19.224;2023-03-03T15:30:31;99349.38;;;-0.27;81.59
75247;BME280;63844;50.042;19.224;2023-03-03T15:33:17;99342.91;;;-0.25;81.51
75247;BME280;63844;50.042;19.224;2023-03-03T15:36:16;99346.16;;;-0.22;81.20
75247;BME280;63844;50.042;19.224;2023-03-03T15:41:44;99347.58;;;-0.23;81.14
75247;BME280;63844;50.042;19.224;2023-03-03T15:49:54;99349.33;;;-0.24;80.99
75247;BME280;63844;50.042;19.224;2023-03-03T15:58:24;99344.40;;;-0.31;81.48
75247;BME280;63844;50.042;19.224;2023-03-03T16:03:46;99337.15;;;-0.34;81.82
75247;BME280;63844;50.042;19.224;2023-03-03T16:09:21;99343.11;;;-0.37;81.38
75247;BME280;63844;50.042;19.224;2023-03-03T16:12:41;99346.06;;;-0.37;81.36
75247;BME280;63844;50.042;19.224;2023-03-03T16:15:03;99342.73;;;-0.35;81.10
75247;BME280;63844;50.042;19.224;2023-03-03T16:17:57;99343.10;;;-0.36;80.61
75247;BME280;63844;50.042;19.224;2023-03-03T16:26:42;99347.88;;;-0.41;81.08
75247;BME280;63844;50.042;19.224;2023-03-03T16:32:08;99353.27;;;-0.41;80.94
75247;BME280;63844;50.042;19.224;2023-03-03T16:34:59;99358.83;;;-0.41;81.06
75247;BME280;63844;50.042;19.224;2023-03-03T16:37:31;99365.94;;;-0.40;80.78